createdAt,value
2023-04-14T00:00:38.747Z,100319.00
2023-04-14T00:04:40.817Z,100326.91
2023-04-14T00:08:42.390Z,100337.84
2023-04-14T00:12:44.139Z,100338.75
2023-04-14T00:16:46.753Z,100341.63
2023-04-14T00:20:48.294Z,100349.75
2023-04-14T00:24:50.754Z,100357.25
2023-04-14T00:28:52.265Z,100357.19
2023-04-14T00:32:53.741Z,100350.63
2023-04-14T00:36:55.239Z,100347.91
2023-04-14T00:40:56.667Z,100361.25
2023-04-14T00:44:58.084Z,100355.97
2023-04-14T00:48:59.673Z,100347.13
2023-04-14T00:53:02.324Z,100358.81
2023-04-14T00:57:05.246Z,100354.22
2023-04-14T01:01:08.057Z,100347.78
2023-04-14T01:05:09.777Z,100359.00
2023-04-14T01:09:12.111Z,100360.72
2023-04-14T01:13:33.486Z,100355.13
2023-04-14T01:18:10.031Z,100349.59
2023-04-14T01:22:14.271Z,100355.59
2023-04-14T01:26:36.142Z,100349.22
2023-04-14T01:30:56.044Z,100350.66
2023-04-14T01:35:00.848Z,100351.34
2023-04-14T01:39:06.727Z,100350.06
2023-04-14T01:43:12.874Z,100347.78
2023-04-14T01:47:17.615Z,100348.69
2023-04-14T01:51:21.392Z,100355.50
2023-04-14T01:55:26.559Z,100348.81
2023-04-14T01:59:30.517Z,100346.09
2023-04-14T02:03:32.784Z,100346.78
2023-04-14T02:07:35.227Z,100351.03
2023-04-14T02:11:38.361Z,100353.84
2023-04-14T02:15:40.856Z,100351.00
2023-04-14T02:19:43.935Z,100350.34
2023-04-14T02:23:45.404Z,100361.97
2023-04-14T02:28:00.400Z,100369.59
2023-04-14T02:32:07.316Z,100365.34
2023-04-14T02:36:20.485Z,100367.66
2023-04-14T02:40:26.879Z,100367.19
2023-04-14T02:44:38.767Z,100370.78
2023-04-14T02:48:42.928Z,100378.53
2023-04-14T02:52:51.254Z,100372.56
2023-04-14T02:56:53.475Z,100370.97
2023-04-14T03:00:56.404Z,100372.56
2023-04-14T03:04:58.149Z,100369.81
2023-04-14T03:09:01.260Z,100371.50
2023-04-14T03:13:05.064Z,100372.75
2023-04-14T03:17:08.023Z,100370.97
2023-04-14T03:21:09.546Z,100369.06
2023-04-14T03:25:12.355Z,100366.66
2023-04-14T03:29:15.745Z,100360.78
2023-04-14T03:33:23.307Z,100363.59
2023-04-14T03:37:27.295Z,100373.88
2023-04-14T03:41:29.593Z,100375.00
2023-04-14T03:45:32.241Z,100366.63
2023-04-14T03:49:38.298Z,100367.41
2023-04-14T03:53:43.157Z,100367.09
2023-04-14T03:57:46.292Z,100357.47
2023-04-14T04:01:48.708Z,100366.47
2023-04-14T04:05:50.834Z,100370.63
2023-04-14T04:09:53.756Z,100365.09
2023-04-14T04:13:56.234Z,100366.03
2023-04-14T04:17:59.807Z,100366.81
2023-04-14T04:22:03.331Z,100361.50
2023-04-14T04:26:05.921Z,100372.44
2023-04-14T04:30:09.061Z,100364.25
2023-04-14T04:34:11.742Z,100361.78
2023-04-14T04:38:13.212Z,100357.59
2023-04-14T04:42:14.667Z,100364.72
2023-04-14T04:46:37.679Z,100368.00
2023-04-14T04:50:40.604Z,100364.38
2023-04-14T04:54:42.137Z,100361.22
2023-04-14T04:58:43.605Z,100365.88
2023-04-14T05:02:45.792Z,100369.81
2023-04-14T05:06:47.470Z,100374.81
2023-04-14T05:10:48.892Z,100366.53
2023-04-14T05:14:50.375Z,100365.34
2023-04-14T05:18:52.277Z,100372.47
2023-04-14T05:22:53.719Z,100378.81
2023-04-14T05:27:12.446Z,100384.06
2023-04-14T05:31:15.518Z,100381.22
2023-04-14T05:35:19.638Z,100373.75
2023-04-14T05:39:21.367Z,100374.53
2023-04-14T05:43:22.767Z,100375.06
2023-04-14T05:47:24.267Z,100375.50
2023-04-14T05:51:27.681Z,100382.03
2023-04-14T05:55:29.141Z,100386.41
2023-04-14T05:59:30.648Z,100385.75
2023-04-14T06:03:32.356Z,100382.66
2023-04-14T06:07:34.492Z,100377.56
2023-04-14T06:11:35.955Z,100387.78
2023-04-14T06:15:37.547Z,100389.31
2023-04-14T06:19:39.211Z,100389.59
2023-04-14T06:23:40.898Z,100384.13
2023-04-14T06:27:42.476Z,100389.31
2023-04-14T06:31:44.075Z,100391.78
2023-04-14T06:35:45.542Z,100395.75
2023-04-14T06:39:46.988Z,100388.53
2023-04-14T06:43:48.389Z,100400.94
2023-04-14T06:47:49.887Z,100399.41
2023-04-14T06:51:51.510Z,100384.88
2023-04-14T06:55:59.214Z,100383.84
2023-04-14T07:00:01.085Z,100399.22
2023-04-14T07:04:06.861Z,100397.53
2023-04-14T07:08:09.227Z,100386.72
2023-04-14T07:12:14.626Z,100386.75
2023-04-14T07:16:16.357Z,100386.66
2023-04-14T07:20:17.928Z,100380.28
2023-04-14T07:24:19.416Z,100385.31
2023-04-14T07:28:22.079Z,100392.84
2023-04-14T07:32:23.633Z,100389.97
2023-04-14T07:36:25.365Z,100393.63
2023-04-14T07:40:26.935Z,100402.78
2023-04-14T07:44:28.409Z,100399.38
2023-04-14T07:48:34.432Z,100400.19
2023-04-14T07:52:36.129Z,100404.13
2023-04-14T07:56:37.921Z,100416.66
2023-04-14T08:00:39.385Z,100412.91
2023-04-14T08:04:41.179Z,100413.75
2023-04-14T08:08:43.250Z,100409.06
2023-04-14T08:12:44.674Z,100407.31
2023-04-14T08:16:46.179Z,100409.25
2023-04-14T08:20:47.737Z,100407.91
2023-04-14T08:24:51.496Z,100406.00
2023-04-14T08:28:54.205Z,100419.81
2023-04-14T08:32:57.034Z,100405.72
2023-04-14T08:37:00.824Z,100405.75
2023-04-14T08:41:08.004Z,100406.66
2023-04-14T08:45:09.665Z,100397.91
2023-04-14T08:49:18.707Z,100393.78
2023-04-14T08:53:21.613Z,100385.06
2023-04-14T08:57:26.154Z,100378.81
2023-04-14T09:01:29.508Z,100373.91
2023-04-14T09:05:31.837Z,100383.47
2023-04-14T09:09:33.946Z,100376.75
2023-04-14T09:13:36.382Z,100369.69
2023-04-14T09:17:37.887Z,100375.78
2023-04-14T09:21:53.631Z,100376.38
2023-04-14T09:25:56.548Z,100372.38
2023-04-14T09:29:58.428Z,100378.19
2023-04-14T09:34:00.254Z,100381.38
2023-04-14T09:38:02.011Z,100380.31
2023-04-14T09:42:04.242Z,100370.31
2023-04-14T09:46:08.642Z,100369.53
2023-04-14T09:50:10.289Z,100368.00
2023-04-14T09:54:12.077Z,100369.00
2023-04-14T09:58:13.613Z,100378.09
2023-04-14T10:02:15.704Z,100373.81
2023-04-14T10:06:19.492Z,100374.81
2023-04-14T10:10:22.479Z,100373.47
2023-04-14T10:14:23.906Z,100371.22
2023-04-14T10:18:25.407Z,100371.31
2023-04-14T10:22:27.989Z,100381.81
2023-04-14T10:26:30.048Z,100366.50
2023-04-14T10:30:32.389Z,100367.94
2023-04-14T10:34:34.501Z,100365.63
2023-04-14T10:38:44.403Z,100362.22
2023-04-14T10:42:53.068Z,100360.53
2023-04-14T10:46:56.703Z,100354.41
2023-04-14T10:50:59.482Z,100358.63
2023-04-14T10:55:08.832Z,100352.44
2023-04-14T10:59:10.320Z,100353.31
2023-04-14T11:03:16.310Z,100343.22
2023-04-14T11:07:21.703Z,100339.66
2023-04-14T11:11:28.061Z,100342.50
2023-04-14T11:15:45.723Z,100337.53
2023-04-14T11:19:47.522Z,100345.47
2023-04-14T11:23:49.249Z,100340.91
2023-04-14T11:27:51.737Z,100347.50
2023-04-14T11:32:04.416Z,100337.69
2023-04-14T11:36:07.845Z,100345.53
2023-04-14T11:40:13.676Z,100349.28
2023-04-14T11:44:22.611Z,100347.69
2023-04-14T11:48:24.118Z,100342.59
2023-04-14T11:52:25.664Z,100346.88
2023-04-14T11:56:28.595Z,100349.91
2023-04-14T12:00:30.204Z,100343.56
2023-04-14T12:04:31.773Z,100335.03
2023-04-14T12:08:33.884Z,100336.97
2023-04-14T12:12:35.324Z,100331.44
2023-04-14T12:16:37.082Z,100321.75
2023-04-14T12:20:47.283Z,100326.03
2023-04-14T12:24:48.803Z,100323.81
2023-04-14T12:28:56.415Z,100326.38
2023-04-14T12:32:58.041Z,100315.75
2023-04-14T12:36:59.547Z,100314.44
2023-04-14T12:41:01.631Z,100312.84
2023-04-14T12:45:04.513Z,100314.06
2023-04-14T12:49:06.142Z,100303.47
2023-04-14T12:53:28.428Z,100292.69
2023-04-14T12:57:31.115Z,100300.00
2023-04-14T13:01:32.821Z,100298.13
2023-04-14T13:05:34.347Z,100291.50
2023-04-14T13:09:36.123Z,100290.72
2023-04-14T13:13:37.562Z,100290.38
2023-04-14T13:17:39.147Z,100282.88
2023-04-14T13:21:41.419Z,100279.31
2023-04-14T13:25:42.862Z,100280.63
2023-04-14T13:29:44.556Z,100268.97
2023-04-14T13:33:45.997Z,100264.44
2023-04-14T13:37:47.995Z,100265.59
2023-04-14T13:41:49.591Z,100258.19
2023-04-14T13:45:51.702Z,100257.75
2023-04-14T13:49:53.144Z,100260.50
2023-04-14T13:53:56.250Z,100261.41
2023-04-14T13:57:57.763Z,100254.28
2023-04-14T14:01:59.438Z,100255.88
2023-04-14T14:06:01.429Z,100251.16
2023-04-14T14:10:04.255Z,100241.00
2023-04-14T14:14:05.700Z,100245.38
2023-04-14T14:18:07.247Z,100250.47
2023-04-14T14:22:08.947Z,100259.28
2023-04-14T14:26:11.509Z,100251.41
2023-04-14T14:30:13.224Z,100247.84
2023-04-14T14:34:14.860Z,100246.97
2023-04-14T14:38:16.296Z,100243.41
2023-04-14T14:42:17.795Z,100236.53
2023-04-14T14:46:19.388Z,100224.44
2023-04-14T14:50:21.340Z,100232.81
2023-04-14T14:54:23.014Z,100236.91
2023-04-14T14:58:24.464Z,100233.63
2023-04-14T15:02:26.063Z,100230.06
2023-04-14T15:06:27.737Z,100234.06
2023-04-14T15:10:29.347Z,100219.69
2023-04-14T15:14:31.248Z,100227.47
2023-04-14T15:18:33.203Z,100232.81
2023-04-14T15:22:35.853Z,100239.03
2023-04-14T15:26:37.872Z,100238.41
2023-04-14T15:30:39.438Z,100230.41
2023-04-14T15:34:40.993Z,100243.59
2023-04-14T15:38:42.546Z,100246.72
2023-04-14T15:42:44.064Z,100243.88
2023-04-14T15:46:46.224Z,100242.97
2023-04-14T15:50:47.636Z,100237.28
2023-04-14T15:54:49.128Z,100244.03
2023-04-14T15:58:50.932Z,100255.81
2023-04-14T16:02:52.568Z,100260.63
2023-04-14T16:06:54.886Z,100247.78
2023-04-14T16:10:56.348Z,100251.78
2023-04-14T16:14:57.887Z,100254.91
2023-04-14T16:18:59.438Z,100258.03
2023-04-14T16:23:01.051Z,100253.84
2023-04-14T16:27:02.512Z,100256.00
2023-04-14T16:31:04.036Z,100247.69
2023-04-14T16:35:05.971Z,100250.63
2023-04-14T16:39:14.875Z,100248.84
2023-04-14T16:43:16.535Z,100253.66
2023-04-14T16:47:18.343Z,100265.41
2023-04-14T16:51:19.971Z,100259.72
2023-04-14T16:55:21.495Z,100256.00
2023-04-14T16:59:22.993Z,100259.72
2023-04-14T17:03:24.569Z,100251.16
2023-04-14T17:07:26.446Z,100259.72
2023-04-14T17:11:27.913Z,100259.88
2023-04-14T17:15:29.328Z,100257.75
2023-04-14T17:19:31.270Z,100261.97
2023-04-14T17:23:37.576Z,100263.56
2023-04-14T17:27:39.040Z,100258.81
2023-04-14T17:31:42.176Z,100253.75
2023-04-14T17:35:43.770Z,100257.31
2023-04-14T17:39:48.961Z,100257.66
2023-04-14T17:43:50.565Z,100268.72
2023-04-14T17:47:53.705Z,100259.63
2023-04-14T17:52:01.213Z,100254.63
2023-04-14T17:56:02.711Z,100247.69
2023-04-14T18:00:05.852Z,100248.78
2023-04-14T18:04:07.555Z,100254.38
2023-04-14T18:08:09.012Z,100248.31
2023-04-14T18:12:10.926Z,100257.56
2023-04-14T18:16:12.368Z,100251.25
2023-04-14T18:20:14.551Z,100248.75
2023-04-14T18:28:20.564Z,100258.47
2023-04-14T18:32:25.011Z,100272.53
2023-04-14T18:36:27.098Z,100265.66
2023-04-14T18:40:28.691Z,100260.88
2023-04-14T18:44:30.280Z,100263.69
2023-04-14T18:48:31.908Z,100260.50
2023-04-14T18:52:33.569Z,100261.56
2023-04-14T18:56:35.056Z,100251.34
2023-04-14T19:00:36.652Z,100255.25
2023-04-14T19:04:38.089Z,100249.09
2023-04-14T19:08:41.078Z,100228.00
2023-04-14T19:12:42.697Z,100239.47
2023-04-14T19:16:45.225Z,100235.28
2023-04-14T19:20:47.741Z,100233.09
2023-04-14T19:24:49.981Z,100230.69
2023-04-14T19:28:53.414Z,100226.75
2023-04-14T19:32:55.027Z,100218.13
2023-04-14T19:36:57.577Z,100227.28
2023-04-14T19:40:59.701Z,100239.75
2023-04-14T19:45:01.264Z,100247.53
2023-04-14T19:49:03.354Z,100236.38
2023-04-14T19:53:06.117Z,100227.47
2023-04-14T19:57:08.547Z,100216.13
2023-04-14T20:01:11.284Z,100225.66
2023-04-14T20:05:12.886Z,100214.81
2023-04-14T20:09:14.360Z,100216.50
2023-04-14T20:13:16.107Z,100234.34
2023-04-14T20:17:18.408Z,100213.84
2023-04-14T20:21:19.985Z,100210.81
2023-04-14T20:25:22.513Z,100210.28
2023-04-14T20:29:25.250Z,100213.09
2023-04-14T20:33:28.587Z,100182.75
2023-04-14T20:37:30.178Z,100172.88
2023-04-14T20:41:34.858Z,100174.03
2023-04-14T20:45:36.579Z,100177.88
2023-04-14T20:49:38.156Z,100167.44
2023-04-14T20:53:39.742Z,100162.91
2023-04-14T20:57:41.929Z,100164.25
2023-04-14T21:01:46.014Z,100184.50
2023-04-14T21:05:48.009Z,100183.16
2023-04-14T21:09:49.442Z,100178.34
2023-04-14T21:15:30.666Z,100159.69
2023-04-14T21:18:13.122Z,100142.31
2023-04-14T21:22:14.555Z,100147.56
2023-04-14T21:26:16.599Z,100155.31
2023-04-14T21:30:18.049Z,100153.72
2023-04-14T21:34:19.851Z,100137.47
2023-04-14T21:38:21.894Z,100147.19
2023-04-14T21:42:23.362Z,100145.34
2023-04-14T21:46:25.164Z,100135.78
2023-04-14T21:50:26.786Z,100132.81
2023-04-14T21:54:30.070Z,100138.53
2023-04-14T21:58:31.500Z,100131.78
2023-04-14T22:02:33.036Z,100128.94
2023-04-14T22:06:35.312Z,100119.69
2023-04-14T22:10:38.172Z,100116.66
2023-04-14T22:14:40.103Z,100123.03
2023-04-14T22:18:42.050Z,100123.03
2023-04-14T22:22:43.535Z,100112.81
2023-04-14T22:26:44.947Z,100103.09
2023-04-14T22:30:46.596Z,100100.44
2023-04-14T22:34:48.308Z,100098.38
2023-04-14T22:38:49.804Z,100116.88
2023-04-14T22:42:51.618Z,100107.31
2023-04-14T22:46:53.312Z,100110.94
2023-04-14T22:50:54.943Z,100110.94
2023-04-14T22:54:56.461Z,100112.75
2023-04-14T22:58:58.281Z,100112.47
2023-04-14T23:03:00.382Z,100112.47
2023-04-14T23:07:02.070Z,100108.75
2023-04-14T23:11:03.737Z,100113.38
2023-04-14T23:15:06.179Z,100107.78
2023-04-14T23:19:07.668Z,100105.63
2023-04-14T23:23:12.095Z,100101.53
2023-04-14T23:27:13.602Z,100100.44
2023-04-14T23:31:17.278Z,100095.09
2023-04-14T23:35:19.394Z,100099.09
2023-04-14T23:39:20.855Z,100101.16
2023-04-14T23:43:22.255Z,100093.91
2023-04-14T23:47:24.007Z,100095.44
2023-04-14T23:51:26.996Z,100101.84
2023-04-14T23:55:28.685Z,100094.03
2023-04-14T23:59:30.149Z,100088.16
